sensor_id;sensor_type;location;lat;lon;timestamp;pressure;altitude;pressure_sealevel;temperature;humidity
43804;BME280;29430;52.924;-2.388;2023-05-07T00:03:48;98976.13;;;13.20;100.00
43804;BME280;29430;52.924;-2.388;2023-05-07T00:08:40;98982.16;;;13.22;100.00
43804;BME280;29430;52.924;-2.388;2023-05-07T00:13:32;98979.44;;;13.22;100.00
43804;BME280;29430;52.924;-2.388;2023-05-07T00:18:27;98975.84;;;13.22;100.00
43804;BME280;29430;52.924;-2.388;2023-05-07T00:23:18;98977.81;;;13.26;100.00
43804;BME280;29430;52.924;-2.388;2023-05-07T00:28:10;98976.25;;;13.31;100.00
43804;BME280;29430;52.924;-2.388;2023-05-07T00:33:02;98972.78;;;13.35;100.00
43804;BME280;29430;52.924;-2.388;2023-05-07T00:37:54;98981.00;;;13.40;100.00
43804;BME280;29430;52.924;-2.388;2023-05-07T00:42:46;98986.78;;;13.44;100.00
43804;BME280;29430;52.924;-2.388;2023-05-07T00:47:39;98984.06;;;13.44;100.00
43804;BME280;29430;52.924;-2.388;2023-05-07T00:52:31;98985.19;;;13.48;100.00
43804;BME280;29430;52.924;-2.388;2023-05-07T00:57:24;98992.28;;;13.49;100.00
43804;BME280;29430;52.924;-2.388;2023-05-07T01:02:17;98992.28;;;13.49;100.00
43804;BME280;29430;52.924;-2.388;2023-05-07T01:07:09;98980.00;;;13.47;100.00
43804;BME280;29430;52.924;-2.388;2023-05-07T01:12:01;98984.63;;;13.46;100.00
43804;BME280;29430;52.924;-2.388;2023-05-07T01:16:53;98988.75;;;13.49;100.00
43804;BME280;29430;52.924;-2.388;2023-05-07T01:21:47;98989.56;;;13.49;100.00
43804;BME280;29430;52.924;-2.388;2023-05-07T01:26:39;98998.25;;;13.46;100.00
43804;BME280;29430;52.924;-2.388;2023-05-07T01:31:32;99002.56;;;13.42;100.00
43804;BME280;29430;52.924;-2.388;2023-05-07T01:36:26;99004.72;;;13.40;100.00
43804;BME280;29430;52.924;-2.388;2023-05-07T01:41:19;99008.75;;;13.37;100.00
43804;BME280;29430;52.924;-2.388;2023-05-07T01:46:11;99006.63;;;13.39;100.00
43804;BME280;29430;52.924;-2.388;2023-05-07T01:51:04;99012.88;;;13.40;100.00
43804;BME280;29430;52.924;-2.388;2023-05-07T01:55:56;99022.97;;;13.39;100.00
43804;BME280;29430;52.924;-2.388;2023-05-07T02:00:48;99012.84;;;13.35;100.00
43804;BME280;29430;52.924;-2.388;2023-05-07T02:05:39;99030.00;;;13.35;100.00
43804;BME280;29430;52.924;-2.388;2023-05-07T02:10:31;99032.38;;;13.32;100.00
43804;BME280;29430;52.924;-2.388;2023-05-07T02:15:23;99039.44;;;13.33;100.00
43804;BME280;29430;52.924;-2.388;2023-05-07T02:20:14;99043.28;;;13.32;100.00
43804;BME280;29430;52.924;-2.388;2023-05-07T02:25:06;99046.25;;;13.30;100.00
43804;BME280;29430;52.924;-2.388;2023-05-07T02:29:58;99052.75;;;13.29;100.00
43804;BME280;29430;52.924;-2.388;2023-05-07T02:34:50;99052.44;;;13.25;100.00
43804;BME280;29430;52.924;-2.388;2023-05-07T02:39:42;99061.13;;;13.22;100.00
43804;BME280;29430;52.924;-2.388;2023-05-07T02:44:34;99060.78;;;13.19;100.00
43804;BME280;29430;52.924;-2.388;2023-05-07T02:49:27;99075.50;;;13.18;100.00
43804;BME280;29430;52.924;-2.388;2023-05-07T02:54:18;99079.28;;;13.17;100.00
43804;BME280;29430;52.924;-2.388;2023-05-07T02:59:10;99078.47;;;13.16;100.00
43804;BME280;29430;52.924;-2.388;2023-05-07T03:04:02;99082.25;;;13.15;100.00
43804;BME280;29430;52.924;-2.388;2023-05-07T03:08:53;99102.38;;;13.14;100.00
43804;BME280;29430;52.924;-2.388;2023-05-07T03:13:45;99094.97;;;13.10;100.00
43804;BME280;29430;52.924;-2.388;2023-05-07T03:18:37;99098.78;;;13.08;100.00
43804;BME280;29430;52.924;-2.388;2023-05-07T03:23:28;99112.88;;;13.05;100.00
43804;BME280;29430;52.924;-2.388;2023-05-07T03:28:20;99109.31;;;13.05;100.00
43804;BME280;29430;52.924;-2.388;2023-05-07T03:33:12;99116.91;;;13.03;100.00
43804;BME280;29430;52.924;-2.388;2023-05-07T03:38:03;99119.88;;;13.01;100.00
43804;BME280;29430;52.924;-2.388;2023-05-07T03:42:56;99117.91;;;12.97;100.00
43804;BME280;29430;52.924;-2.388;2023-05-07T03:47:47;99111.06;;;12.94;100.00
43804;BME280;29430;52.924;-2.388;2023-05-07T03:52:39;99111.56;;;12.91;100.00
43804;BME280;29430;52.924;-2.388;2023-05-07T03:57:32;99115.50;;;12.83;100.00
43804;BME280;29430;52.924;-2.388;2023-05-07T04:02:23;99115.94;;;12.75;100.00
43804;BME280;29430;52.924;-2.388;2023-05-07T04:07:15;99110.16;;;12.71;100.00
43804;BME280;29430;52.924;-2.388;2023-05-07T04:12:07;99108.19;;;12.67;100.00
43804;BME280;29430;52.924;-2.388;2023-05-07T04:16:59;99111.66;;;12.62;100.00
43804;BME280;29430;52.924;-2.388;2023-05-07T04:21:51;99108.34;;;12.60;100.00
43804;BME280;29430;52.924;-2.388;2023-05-07T04:26:42;99098.19;;;12.56;100.00
43804;BME280;29430;52.924;-2.388;2023-05-07T04:31:34;99102.56;;;12.57;100.00
43804;BME280;29430;52.924;-2.388;2023-05-07T04:36:26;99109.66;;;12.58;100.00
43804;BME280;29430;52.924;-2.388;2023-05-07T04:41:19;99105.03;;;12.58;100.00
43804;BME280;29430;52.924;-2.388;2023-05-07T04:46:10;99121.38;;;12.58;100.00
43804;BME280;29430;52.924;-2.388;2023-05-07T04:51:02;99120.44;;;12.52;100.00
43804;BME280;29430;52.924;-2.388;2023-05-07T04:55:55;99114.19;;;12.52;100.00
43804;BME280;29430;52.924;-2.388;2023-05-07T05:00:48;99128.03;;;12.50;100.00
43804;BME280;29430;52.924;-2.388;2023-05-07T05:05:39;99129.00;;;12.44;100.00
43804;BME280;29430;52.924;-2.388;2023-05-07T05:10:31;99134.94;;;12.41;100.00
43804;BME280;29430;52.924;-2.388;2023-05-07T05:15:22;99146.63;;;12.42;100.00
43804;BME280;29430;52.924;-2.388;2023-05-07T05:20:14;99149.03;;;12.38;100.00
43804;BME280;29430;52.924;-2.388;2023-05-07T05:25:06;99153.03;;;12.35;100.00
43804;BME280;29430;52.924;-2.388;2023-05-07T05:29:58;99157.22;;;12.26;100.00
43804;BME280;29430;52.924;-2.388;2023-05-07T05:34:50;99152.66;;;12.15;100.00
43804;BME280;29430;52.924;-2.388;2023-05-07T05:39:42;99173.84;;;12.13;100.00
43804;BME280;29430;52.924;-2.388;2023-05-07T05:44:34;99177.53;;;12.07;100.00
43804;BME280;29430;52.924;-2.388;2023-05-07T05:49:25;99174.91;;;12.00;100.00
43804;BME280;29430;52.924;-2.388;2023-05-07T05:54:17;99183.56;;;12.38;100.00
43804;BME280;29430;52.924;-2.388;2023-05-07T05:59:09;99179.84;;;12.89;100.00
43804;BME280;29430;52.924;-2.388;2023-05-07T06:04:01;99182.53;;;13.35;100.00
43804;BME280;29430;52.924;-2.388;2023-05-07T06:08:52;99184.47;;;13.57;100.00
43804;BME280;29430;52.924;-2.388;2023-05-07T06:13:44;99197.47;;;13.89;100.00
43804;BME280;29430;52.924;-2.388;2023-05-07T06:18:36;99202.97;;;13.94;95.84
43804;BME280;29430;52.924;-2.388;2023-05-07T06:23:27;99207.00;;;13.69;95.80
43804;BME280;29430;52.924;-2.388;2023-05-07T06:28:19;99221.13;;;13.66;97.22
43804;BME280;29430;52.924;-2.388;2023-05-07T06:33:11;99216.59;;;14.16;97.41
43804;BME280;29430;52.924;-2.388;2023-05-07T06:38:03;99223.16;;;14.37;94.00
43804;BME280;29430;52.924;-2.388;2023-05-07T06:42:54;99227.56;;;14.43;93.30
43804;BME280;29430;52.924;-2.388;2023-05-07T06:47:46;99232.53;;;14.46;92.53
43804;BME280;29430;52.924;-2.388;2023-05-07T06:52:38;99231.25;;;14.54;95.20
43804;BME280;29430;52.924;-2.388;2023-05-07T06:57:29;99225.66;;;15.20;93.46
43804;BME280;29430;52.924;-2.388;2023-05-07T07:02:21;99235.28;;;16.08;87.64
43804;BME280;29430;52.924;-2.388;2023-05-07T07:07:13;99234.38;;;16.66;84.10
43804;BME280;29430;52.924;-2.388;2023-05-07T07:12:05;99232.31;;;17.25;83.74
43804;BME280;29430;52.924;-2.388;2023-05-07T07:16:56;99223.97;;;18.07;80.53
43804;BME280;29430;52.924;-2.388;2023-05-07T07:21:48;99253.81;;;18.84;75.67
43804;BME280;29430;52.924;-2.388;2023-05-07T07:26:40;99241.56;;;19.50;73.16
43804;BME280;29430;52.924;-2.388;2023-05-07T07:31:31;99229.94;;;20.12;70.12
43804;BME280;29430;52.924;-2.388;2023-05-07T07:36:23;99232.88;;;20.45;65.85
43804;BME280;29430;52.924;-2.388;2023-05-07T07:41:29;99243.03;;;20.69;66.82
43804;BME280;29430;52.924;-2.388;2023-05-07T07:46:22;99233.88;;;20.92;65.63
43804;BME280;29430;52.924;-2.388;2023-05-07T07:51:13;99228.75;;;21.38;64.47
43804;BME280;29430;52.924;-2.388;2023-05-07T07:56:05;99254.25;;;21.81;61.35
43804;BME280;29430;52.924;-2.388;2023-05-07T08:00:57;99253.06;;;22.15;61.30
43804;BME280;29430;52.924;-2.388;2023-05-07T08:05:49;99266.47;;;22.50;58.87
43804;BME280;29430;52.924;-2.388;2023-05-07T08:10:42;99262.47;;;22.70;58.26
43804;BME280;29430;52.924;-2.388;2023-05-07T08:15:34;99257.69;;;22.98;55.95
43804;BME280;29430;52.924;-2.388;2023-05-07T08:20:26;99270.50;;;23.31;53.52
43804;BME280;29430;52.924;-2.388;2023-05-07T08:25:17;99282.34;;;23.45;54.22
43804;BME280;29430;52.924;-2.388;2023-05-07T08:30:09;99283.91;;;23.15;54.63
43804;BME280;29430;52.924;-2.388;2023-05-07T08:35:02;99297.00;;;22.59;54.34
43804;BME280;29430;52.924;-2.388;2023-05-07T08:39:54;99296.88;;;22.36;57.50
43804;BME280;29430;52.924;-2.388;2023-05-07T08:44:46;99296.41;;;22.15;56.23
43804;BME280;29430;52.924;-2.388;2023-05-07T08:49:41;99298.91;;;22.30;56.68
43804;BME280;29430;52.924;-2.388;2023-05-07T08:54:33;99306.28;;;22.35;55.50
43804;BME280;29430;52.924;-2.388;2023-05-07T08:59:25;99306.16;;;22.12;57.86
43804;BME280;29430;52.924;-2.388;2023-05-07T09:04:17;99301.91;;;22.48;58.71
43804;BME280;29430;52.924;-2.388;2023-05-07T09:09:09;99306.53;;;22.39;56.24
43804;BME280;29430;52.924;-2.388;2023-05-07T09:14:05;99304.91;;;22.05;57.41
43804;BME280;29430;52.924;-2.388;2023-05-07T09:18:59;99301.28;;;21.90;57.70
43804;BME280;29430;52.924;-2.388;2023-05-07T09:23:55;99321.88;;;21.98;57.04
43804;BME280;29430;52.924;-2.388;2023-05-07T09:28:47;99317.16;;;21.85;56.36
43804;BME280;29430;52.924;-2.388;2023-05-07T09:33:39;99320.06;;;21.74;56.41
43804;BME280;29430;52.924;-2.388;2023-05-07T09:38:34;99337.00;;;21.49;56.40
43804;BME280;29430;52.924;-2.388;2023-05-07T09:43:31;99345.72;;;20.99;58.42
43804;BME280;29430;52.924;-2.388;2023-05-07T09:48:25;99353.31;;;20.88;58.95
43804;BME280;29430;52.924;-2.388;2023-05-07T09:53:17;99341.91;;;20.51;60.22
43804;BME280;29430;52.924;-2.388;2023-05-07T09:58:09;99355.06;;;20.30;60.26
43804;BME280;29430;52.924;-2.388;2023-05-07T10:03:04;99341.69;;;20.18;61.74
43804;BME280;29430;52.924;-2.388;2023-05-07T10:07:57;99345.41;;;20.33;62.08
43804;BME280;29430;52.924;-2.388;2023-05-07T10:12:50;99338.09;;;20.18;61.75
43804;BME280;29430;52.924;-2.388;2023-05-07T10:17:48;99337.72;;;20.30;59.54
43804;BME280;29430;52.924;-2.388;2023-05-07T10:22:45;99339.06;;;20.32;59.73
43804;BME280;29430;52.924;-2.388;2023-05-07T10:27:37;99347.75;;;20.15;60.35
43804;BME280;29430;52.924;-2.388;2023-05-07T10:32:52;99349.72;;;20.15;61.36
43804;BME280;29430;52.924;-2.388;2023-05-07T10:37:45;99349.16;;;20.42;60.98
43804;BME280;29430;52.924;-2.388;2023-05-07T10:42:38;99356.25;;;20.48;60.49
43804;BME280;29430;52.924;-2.388;2023-05-07T10:47:30;99364.22;;;20.50;58.82
43804;BME280;29430;52.924;-2.388;2023-05-07T10:52:23;99371.31;;;20.56;59.31
43804;BME280;29430;52.924;-2.388;2023-05-07T10:57:34;99367.69;;;20.61;59.38
43804;BME280;29430;52.924;-2.388;2023-05-07T11:07:56;99375.03;;;20.70;58.99
43804;BME280;29430;52.924;-2.388;2023-05-07T11:12:49;99374.75;;;21.34;58.37
43804;BME280;29430;52.924;-2.388;2023-05-07T11:17:55;99375.78;;;21.95;56.59
43804;BME280;29430;52.924;-2.388;2023-05-07T11:22:47;99368.81;;;21.98;57.09
43804;BME280;29430;52.924;-2.388;2023-05-07T11:27:41;99366.97;;;21.93;55.67
43804;BME280;29430;52.924;-2.388;2023-05-07T11:32:32;99365.59;;;21.77;54.62
43804;BME280;29430;52.924;-2.388;2023-05-07T11:37:25;99368.66;;;22.08;55.88
43804;BME280;29430;52.924;-2.388;2023-05-07T11:42:31;99377.66;;;22.47;52.34
43804;BME280;29430;52.924;-2.388;2023-05-07T11:47:23;99364.75;;;22.42;54.08
43804;BME280;29430;52.924;-2.388;2023-05-07T11:52:20;99370.59;;;22.82;54.14
43804;BME280;29430;52.924;-2.388;2023-05-07T11:57:15;99370.34;;;23.34;50.79
43804;BME280;29430;52.924;-2.388;2023-05-07T12:02:07;99372.16;;;23.53;49.07
43804;BME280;29430;52.924;-2.388;2023-05-07T12:06:59;99391.47;;;23.30;51.23
43804;BME280;29430;52.924;-2.388;2023-05-07T12:11:51;99373.13;;;23.34;49.91
43804;BME280;29430;52.924;-2.388;2023-05-07T12:16:44;99375.59;;;23.22;51.24
43804;BME280;29430;52.924;-2.388;2023-05-07T12:21:36;99379.34;;;23.40;50.82
43804;BME280;29430;52.924;-2.388;2023-05-07T12:26:28;99374.75;;;23.35;50.39
43804;BME280;29430;52.924;-2.388;2023-05-07T12:31:20;99381.03;;;23.27;52.20
43804;BME280;29430;52.924;-2.388;2023-05-07T12:36:13;99387.91;;;23.16;51.72
43804;BME280;29430;52.924;-2.388;2023-05-07T12:41:06;99389.22;;;23.18;51.08
43804;BME280;29430;52.924;-2.388;2023-05-07T12:46:05;99391.81;;;23.15;50.69
43804;BME280;29430;52.924;-2.388;2023-05-07T12:50:58;99398.38;;;22.91;50.38
43804;BME280;29430;52.924;-2.388;2023-05-07T12:55:53;99394.56;;;22.87;51.58
43804;BME280;29430;52.924;-2.388;2023-05-07T13:00:48;99394.25;;;22.88;50.70
43804;BME280;29430;52.924;-2.388;2023-05-07T13:05:40;99395.78;;;22.67;52.26
43804;BME280;29430;52.924;-2.388;2023-05-07T13:10:32;99398.66;;;22.62;51.14
43804;BME280;29430;52.924;-2.388;2023-05-07T13:15:25;99387.59;;;22.48;50.08
43804;BME280;29430;52.924;-2.388;2023-05-07T13:20:18;99395.63;;;22.30;51.61
43804;BME280;29430;52.924;-2.388;2023-05-07T13:25:10;99396.72;;;22.15;54.22
43804;BME280;29430;52.924;-2.388;2023-05-07T13:30:03;99393.22;;;22.10;53.08
43804;BME280;29430;52.924;-2.388;2023-05-07T13:34:55;99394.50;;;21.98;52.83
43804;BME280;29430;52.924;-2.388;2023-05-07T13:39:47;99389.66;;;21.90;53.76
43804;BME280;29430;52.924;-2.388;2023-05-07T13:44:39;99405.66;;;22.07;55.16
43804;BME280;29430;52.924;-2.388;2023-05-07T13:49:30;99402.44;;;22.19;50.85
43804;BME280;29430;52.924;-2.388;2023-05-07T13:54:22;99392.97;;;21.92;51.91
43804;BME280;29430;52.924;-2.388;2023-05-07T13:59:14;99401.53;;;21.91;54.80
43804;BME280;29430;52.924;-2.388;2023-05-07T14:04:05;99398.09;;;21.99;54.40
43804;BME280;29430;52.924;-2.388;2023-05-07T14:08:57;99396.38;;;22.03;52.45
43804;BME280;29430;52.924;-2.388;2023-05-07T14:13:49;99401.06;;;22.03;51.81
43804;BME280;29430;52.924;-2.388;2023-05-07T14:18:41;99399.50;;;21.96;53.14
43804;BME280;29430;52.924;-2.388;2023-05-07T14:23:32;99404.38;;;21.86;53.17
43804;BME280;29430;52.924;-2.388;2023-05-07T14:28:24;99404.09;;;21.68;52.09
43804;BME280;29430;52.924;-2.388;2023-05-07T14:33:17;99411.09;;;21.41;53.04
43804;BME280;29430;52.924;-2.388;2023-05-07T14:38:08;99394.34;;;21.14;53.19
43804;BME280;29430;52.924;-2.388;2023-05-07T14:43:00;99391.00;;;21.36;56.11
43804;BME280;29430;52.924;-2.388;2023-05-07T14:47:52;99398.28;;;21.51;53.37
43804;BME280;29430;52.924;-2.388;2023-05-07T14:52:43;99404.13;;;21.44;54.24
43804;BME280;29430;52.924;-2.388;2023-05-07T14:57:35;99406.09;;;21.43;54.35
43804;BME280;29430;52.924;-2.388;2023-05-07T15:02:27;99401.97;;;21.41;53.64
43804;BME280;29430;52.924;-2.388;2023-05-07T15:07:19;99398.41;;;21.40;53.16
43804;BME280;29430;52.924;-2.388;2023-05-07T15:12:11;99402.56;;;21.38;54.70
43804;BME280;29430;52.924;-2.388;2023-05-07T15:17:03;99396.91;;;21.48;54.98
43804;BME280;29430;52.924;-2.388;2023-05-07T15:21:56;99399.31;;;21.55;54.22
43804;BME280;29430;52.924;-2.388;2023-05-07T15:26:48;99401.41;;;21.63;55.58
43804;BME280;29430;52.924;-2.388;2023-05-07T15:31:41;99395.72;;;21.73;53.54
43804;BME280;29430;52.924;-2.388;2023-05-07T15:36:33;99393.88;;;21.69;53.06
43804;BME280;29430;52.924;-2.388;2023-05-07T15:41:24;99397.63;;;21.35;54.56
43804;BME280;29430;52.924;-2.388;2023-05-07T15:46:21;99398.44;;;21.16;55.54
43804;BME280;29430;52.924;-2.388;2023-05-07T15:51:14;99396.25;;;20.94;54.05
43804;BME280;29430;52.924;-2.388;2023-05-07T15:56:05;99390.28;;;20.87;55.02
43804;BME280;29430;52.924;-2.388;2023-05-07T16:00:58;99403.72;;;20.93;54.14
43804;BME280;29430;52.924;-2.388;2023-05-07T16:05:51;99403.09;;;20.78;56.12
43804;BME280;29430;52.924;-2.388;2023-05-07T16:10:42;99398.81;;;20.61;56.18
43804;BME280;29430;52.924;-2.388;2023-05-07T16:15:34;99400.28;;;20.53;57.01
43804;BME280;29430;52.924;-2.388;2023-05-07T16:20:27;99400.56;;;20.52;55.19
43804;BME280;29430;52.924;-2.388;2023-05-07T16:25:22;99408.69;;;20.38;56.48
43804;BME280;29430;52.924;-2.388;2023-05-07T16:30:14;99401.88;;;20.30;56.28
43804;BME280;29430;52.924;-2.388;2023-05-07T16:35:06;99396.97;;;20.27;56.06
43804;BME280;29430;52.924;-2.388;2023-05-07T16:40:02;99397.03;;;20.46;56.76
43804;BME280;29430;52.924;-2.388;2023-05-07T16:44:57;99403.31;;;20.52;55.49
43804;BME280;29430;52.924;-2.388;2023-05-07T16:49:49;99399.84;;;20.41;54.82
43804;BME280;29430;52.924;-2.388;2023-05-07T16:54:41;99401.22;;;20.44;55.61
43804;BME280;29430;52.924;-2.388;2023-05-07T16:59:32;99409.72;;;20.47;55.71
43804;BME280;29430;52.924;-2.388;2023-05-07T17:04:24;99398.97;;;20.46;55.08
43804;BME280;29430;52.924;-2.388;2023-05-07T17:09:16;99409.78;;;20.42;55.16
43804;BME280;29430;52.924;-2.388;2023-05-07T17:14:07;99407.59;;;20.39;55.71
43804;BME280;29430;52.924;-2.388;2023-05-07T17:18:59;99404.06;;;20.33;57.40
43804;BME280;29430;52.924;-2.388;2023-05-07T17:23:51;99414.00;;;20.29;58.04
43804;BME280;29430;52.924;-2.388;2023-05-07T17:28:43;99414.94;;;20.19;58.18
43804;BME280;29430;52.924;-2.388;2023-05-07T17:33:35;99415.56;;;20.11;57.71
43804;BME280;29430;52.924;-2.388;2023-05-07T17:38:27;99407.91;;;20.03;59.49
43804;BME280;29430;52.924;-2.388;2023-05-07T17:43:18;99416.13;;;20.08;60.20
43804;BME280;29430;52.924;-2.388;2023-05-07T17:48:13;99421.38;;;20.04;59.95
43804;BME280;29430;52.924;-2.388;2023-05-07T17:53:04;99424.75;;;19.96;60.61
43804;BME280;29430;52.924;-2.388;2023-05-07T17:57:56;99415.47;;;19.87;60.99
43804;BME280;29430;52.924;-2.388;2023-05-07T18:02:50;99417.72;;;19.80;61.18
43804;BME280;29430;52.924;-2.388;2023-05-07T18:07:42;99419.44;;;19.65;60.51
43804;BME280;29430;52.924;-2.388;2023-05-07T18:12:34;99425.00;;;19.55;61.13
43804;BME280;29430;52.924;-2.388;2023-05-07T18:17:26;99423.44;;;19.44;62.32
43804;BME280;29430;52.924;-2.388;2023-05-07T18:22:18;99413.88;;;19.31;62.04
43804;BME280;29430;52.924;-2.388;2023-05-07T18:27:10;99424.13;;;19.20;62.53
43804;BME280;29430;52.924;-2.388;2023-05-07T18:32:04;99424.69;;;19.12;63.23
43804;BME280;29430;52.924;-2.388;2023-05-07T18:36:56;99440.13;;;19.03;63.70
43804;BME280;29430;52.924;-2.388;2023-05-07T18:41:48;99433.03;;;18.86;64.08
43804;BME280;29430;52.924;-2.388;2023-05-07T18:46:41;99435.25;;;18.74;64.74
43804;BME280;29430;52.924;-2.388;2023-05-07T18:51:34;99431.94;;;18.72;65.01
43804;BME280;29430;52.924;-2.388;2023-05-07T18:56:25;99443.47;;;18.69;65.22
43804;BME280;29430;52.924;-2.388;2023-05-07T19:01:17;99441.84;;;18.63;65.83
43804;BME280;29430;52.924;-2.388;2023-05-07T19:06:09;99446.81;;;18.60;66.31
43804;BME280;29430;52.924;-2.388;2023-05-07T19:11:01;99464.09;;;18.61;66.73
43804;BME280;29430;52.924;-2.388;2023-05-07T19:15:53;99459.97;;;18.64;66.92
43804;BME280;29430;52.924;-2.388;2023-05-07T19:20:46;99464.66;;;18.63;67.74
43804;BME280;29430;52.924;-2.388;2023-05-07T19:25:40;99467.13;;;18.59;67.33
43804;BME280;29430;52.924;-2.388;2023-05-07T19:30:32;99478.41;;;18.48;65.97
43804;BME280;29430;52.924;-2.388;2023-05-07T19:35:23;99473.19;;;18.41;66.46
43804;BME280;29430;52.924;-2.388;2023-05-07T19:40:15;99468.53;;;18.36;65.71
43804;BME280;29430;52.924;-2.388;2023-05-07T19:45:08;99476.50;;;18.28;65.83
43804;BME280;29430;52.924;-2.388;2023-05-07T19:50:00;99474.84;;;18.11;66.05
43804;BME280;29430;52.924;-2.388;2023-05-07T19:54:52;99487.47;;;18.02;66.52
43804;BME280;29430;52.924;-2.388;2023-05-07T19:59:45;99495.66;;;17.92;66.93
43804;BME280;29430;52.924;-2.388;2023-05-07T20:04:37;99499.75;;;17.84;67.82
43804;BME280;29430;52.924;-2.388;2023-05-07T20:09:28;99509.06;;;17.78;68.91
43804;BME280;29430;52.924;-2.388;2023-05-07T20:14:20;99516.47;;;17.72;69.26
43804;BME280;29430;52.924;-2.388;2023-05-07T20:19:12;99515.91;;;17.70;69.42
43804;BME280;29430;52.924;-2.388;2023-05-07T20:24:05;99509.00;;;17.62;69.33
43804;BME280;29430;52.924;-2.388;2023-05-07T20:28:56;99519.97;;;17.57;69.51
43804;BME280;29430;52.924;-2.388;2023-05-07T20:33:48;99519.97;;;17.52;69.65
43804;BME280;29430;52.924;-2.388;2023-05-07T20:38:40;99523.22;;;17.44;69.92
43804;BME280;29430;52.924;-2.388;2023-05-07T20:43:32;99533.63;;;17.36;70.41
43804;BME280;29430;52.924;-2.388;2023-05-07T20:48:24;99537.44;;;17.30;70.74
43804;BME280;29430;52.924;-2.388;2023-05-07T20:53:20;99534.88;;;17.18;70.39
43804;BME280;29430;52.924;-2.388;2023-05-07T20:58:13;99533.75;;;17.09;70.53
43804;BME280;29430;52.924;-2.388;2023-05-07T21:03:05;99543.81;;;16.98;70.64
43804;BME280;29430;52.924;-2.388;2023-05-07T21:07:57;99556.56;;;16.82;71.36
43804;BME280;29430;52.924;-2.388;2023-05-07T21:12:49;99556.47;;;16.72;71.85
43804;BME280;29430;52.924;-2.388;2023-05-07T21:17:41;99549.47;;;16.54;72.66
43804;BME280;29430;52.924;-2.388;2023-05-07T21:22:33;99545.50;;;16.35;72.40
43804;BME280;29430;52.924;-2.388;2023-05-07T21:27:27;99548.63;;;16.16;72.16
43804;BME280;29430;52.924;-2.388;2023-05-07T21:32:19;99540.00;;;16.02;72.10
43804;BME280;29430;52.924;-2.388;2023-05-07T21:37:12;99527.53;;;15.89;72.07
43804;BME280;29430;52.924;-2.388;2023-05-07T21:42:03;99536.41;;;15.74;72.74
43804;BME280;29430;52.924;-2.388;2023-05-07T21:46:55;99524.13;;;15.55;73.73
43804;BME280;29430;52.924;-2.388;2023-05-07T21:51:47;99523.44;;;15.43;75.12
43804;BME280;29430;52.924;-2.388;2023-05-07T21:56:39;99526.47;;;15.24;76.21
43804;BME280;29430;52.924;-2.388;2023-05-07T22:01:31;99515.09;;;15.10;75.83
43804;BME280;29430;52.924;-2.388;2023-05-07T22:06:23;99528.88;;;14.98;76.09
43804;BME280;29430;52.924;-2.388;2023-05-07T22:11:15;99516.75;;;14.89;76.43
43804;BME280;29430;52.924;-2.388;2023-05-07T22:16:07;99530.06;;;14.85;76.29
43804;BME280;29430;52.924;-2.388;2023-05-07T22:20:59;99533.72;;;14.74;76.62
43804;BME280;29430;52.924;-2.388;2023-05-07T22:25:51;99532.81;;;14.68;76.48
43804;BME280;29430;52.924;-2.388;2023-05-07T22:30:43;99529.19;;;14.63;76.55
43804;BME280;29430;52.924;-2.388;2023-05-07T22:35:35;99531.47;;;14.54;76.53
43804;BME280;29430;52.924;-2.388;2023-05-07T22:40:28;99529.66;;;14.43;76.58
43804;BME280;29430;52.924;-2.388;2023-05-07T22:45:20;99529.72;;;14.31;76.84
43804;BME280;29430;52.924;-2.388;2023-05-07T22:50:12;99522.94;;;14.17;76.81
43804;BME280;29430;52.924;-2.388;2023-05-07T22:55:05;99531.19;;;14.05;77.00
43804;BME280;29430;52.924;-2.388;2023-05-07T22:59:57;99529.66;;;13.97;77.22
43804;BME280;29430;52.924;-2.388;2023-05-07T23:04:48;99523.22;;;13.86;77.37
43804;BME280;29430;52.924;-2.388;2023-05-07T23:09:40;99522.03;;;13.82;77.65
43804;BME280;29430;52.924;-2.388;2023-05-07T23:14:32;99519.38;;;13.70;76.97
43804;BME280;29430;52.924;-2.388;2023-05-07T23:19:24;99526.28;;;13.61;77.20
43804;BME280;29430;52.924;-2.388;2023-05-07T23:24:15;99502.34;;;13.51;77.29
43804;BME280;29430;52.924;-2.388;2023-05-07T23:29:07;99497.41;;;13.48;77.29
43804;BME280;29430;52.924;-2.388;2023-05-07T23:34:00;99492.00;;;13.36;77.65
43804;BME280;29430;52.924;-2.388;2023-05-07T23:38:53;99492.50;;;13.33;77.31
43804;BME280;29430;52.924;-2.388;2023-05-07T23:43:44;99498.63;;;13.29;77.49
43804;BME280;29430;52.924;-2.388;2023-05-07T23:48:36;99508.34;;;13.24;77.04
43804;BME280;29430;52.924;-2.388;2023-05-07T23:53:28;99513.69;;;13.19;77.17
43804;BME280;29430;52.924;-2.388;2023-05-07T23:58:21;99507.06;;;13.15;77.14
